메인 페이지
METAR-TAF:

METAR-TAF

공항 :

누악쇼트, 모리타니

위도: 18-18-36N, 경도: 015-58-11W, 고도: 3m

현재 날씨관측

예보는 54분 전, 14:30시(UTC)에 발표되었습니다.
17kt
온도 29°C
습도 15%
기압 1013 hPa
시정: 2000m
날린모래

METAR: GQNO 111430Z 09017KT 2000 BLSA NSC 29/00 Q1013 NOSIG

시각: 15:24 (15:24 UTC)

예보

예보는 4 시간 24분 전, 11:00시(UTC)에 발표되었습니다.
예보 대상 시간: 11일 12시부터 12일 18시까지 (UTC)
16kt
시정: 2500m
날린모래
확률 40% :
일시적
11일 12시부터 11일 16시까지 (UTC)
시정: 1200m
날린모래
11일 1700시부터 (UTC)
북북동12kt
시정: 4000m
날린먼지
전환 중
11일 20시부터 11일 22시까지 (UTC)
시정: 6000m
전환 중
12일 09시부터 12일 12시까지 (UTC)
16kt
확률 40% :
일시적
12일 10시부터 12일 16시까지 (UTC)
시정: 2000m
날린모래

TAF: GQNO 111100Z 1112/1218 09016KT 2500 BLSA NSC PROB40 TEMPO 1112/1116 1200 BLSA FM111700 02012KT 4000 BLDU NSC BECMG 1120/1122 6000 NSW BECMG 1209/1212 08016KT PROB40 TEMPO 1210/1216 2000 BLSA

4,000개 이상의 공항 관측 자료 및 예보 (METAR 및 TAF 보고).

지도상에서 검색 가능한 기상관측소가 노란 점과 빨간 점으로 표시되어 있습니다.

기상관측소 명을 보려면 표시 위로 마우스를 이동하세요.

날씨 관측과 예보를 보려면 클릭하세요.

지도 변경 : 확대하려면 엑스 표시가 있는 녹색 버튼, 축소하려면 빼기 표시가 있는 녹색 버튼, 다음 페이지의 지도를 보려면 녹색 화살표를 클릭하세요.


METAR-TAF: